Time;durP1;ratioP1;P1;durP2;ratioP2;P2;SDS_P1;SDS_P2;PMS_P1;PMS_P2;Temp;Humidity;BMP_temperature;BMP_pressure;BME280_temperature;BME280_humidity;BME280_pressure;Samples;Min_cycle;Max_cycle;Signal;HPM_P1;HPM_P2
2024/04/10 00:00:56;;;;;;;16.90;2.05;;;10.70;93.50;;;;;;5384774;26;20001;-84
2024/04/10 00:03:22;;;;;;;16.33;2.70;;;10.70;93.50;;;;;;5353265;26;20001;-86
2024/04/10 00:06:08;;;;;;;13.93;2.95;;;10.70;93.60;;;;;;5384035;26;20001;-86
2024/04/10 00:08:35;;;;;;;14.47;2.53;;;10.60;93.70;;;;;;5381277;26;20019;-84
2024/04/10 00:11:02;;;;;;;16.25;2.30;;;10.60;93.80;;;;;;5384017;26;20017;-85
2024/04/10 00:13:29;;;;;;;13.90;2.28;;;10.50;93.90;;;;;;5382265;26;20001;-85
2024/04/10 00:16:01;;;;;;;9.70;2.00;;;10.50;94.00;;;;;;5383238;26;19997;-86
2024/04/10 00:18:29;;;;;;;10.32;2.60;;;10.50;94.00;;;;;;5383571;26;20001;-86
2024/04/10 00:20:56;;;;;;;16.60;2.23;;;10.50;94.20;;;;;;5381544;26;20000;-87
2024/04/10 00:23:22;;;;;;;15.77;2.93;;;10.50;94.20;;;;;;5383434;26;20005;-86
2024/04/10 00:25:58;;;;;;;10.77;1.70;;;10.40;94.20;;;;;;5381757;26;19997;-86
2024/04/10 00:28:25;;;;;;;15.05;1.95;;;10.40;94.30;;;;;;5355818;26;20012;-86
2024/04/10 00:30:51;;;;;;;11.33;2.23;;;10.40;94.40;;;;;;5355341;26;19997;-85
2024/04/10 00:33:18;;;;;;;11.15;2.03;;;10.30;94.40;;;;;;5353107;26;20001;-87
2024/04/10 00:36:04;;;;;;;12.93;1.90;;;10.20;94.40;;;;;;5383781;26;20029;-86
2024/04/10 00:38:31;;;;;;;14.87;2.37;;;10.30;94.50;;;;;;5351673;26;20017;-85
2024/04/10 00:40:59;;;;;;;14.53;2.13;;;10.20;94.50;;;;;;5383279;26;20462;-85
2024/04/10 00:43:25;;;;;;;14.47;2.47;;;10.20;94.60;;;;;;5381941;26;19993;-86
2024/04/10 00:46:10;;;;;;;14.20;2.00;;;10.20;94.70;;;;;;5353406;26;20000;-86
2024/04/10 00:48:36;;;;;;;;;;;10.10;95.10;;;;;;5357004;26;19993;-86
2024/04/10 00:51:03;;;;;;;13.53;2.30;;;10.10;94.90;;;;;;5352061;26;19995;-86
2024/04/10 00:53:29;;;;;;;11.23;2.57;;;10.10;95.00;;;;;;5383630;26;20009;-86
2024/04/10 00:55:55;;;;;;;16.63;3.13;;;10.00;95.10;;;;;;5381317;26;19993;-84
2024/04/10 00:58:23;;;;;;;11.00;1.67;;;10.00;95.10;;;;;;5382959;26;19993;-83
2024/04/10 01:00:49;;;;;;;25.47;3.93;;;10.00;95.10;;;;;;5382159;26;20005;-85
2024/04/10 01:03:15;;;;;;;10.50;2.27;;;9.90;95.20;;;;;;5381180;26;20000;-84
2024/04/10 01:05:41;;;;;;;11.90;3.00;;;10.00;95.30;;;;;;5383258;26;20004;-85
2024/04/10 01:08:06;;;;;;;10.17;2.80;;;9.80;95.40;;;;;;5382540;26;20004;-85
2024/04/10 01:10:33;;;;;;;10.70;2.23;;;9.90;95.50;;;;;;5357978;26;19981;-85
2024/04/10 01:13:00;;;;;;;9.67;1.97;;;9.90;95.60;;;;;;5385671;26;20001;-85
2024/04/10 01:15:26;;;;;;;11.40;2.57;;;9.90;95.70;;;;;;5382586;26;20009;-84
2024/04/10 01:17:52;;;;;;;10.57;2.13;;;9.90;95.80;;;;;;5381614;26;20003;-82
2024/04/10 01:20:18;;;;;;;16.40;2.50;;;9.90;95.80;;;;;;5382814;26;19997;-85
2024/04/10 01:22:43;;;;;;;15.23;2.80;;;9.90;96.00;;;;;;5384467;26;20033;-85
2024/04/10 01:25:09;;;;;;;10.63;2.10;;;9.90;96.10;;;;;;5354442;26;20442;-86
2024/04/10 01:27:34;;;;;;;12.53;2.90;;;9.90;96.20;;;;;;5383194;26;19997;-85
2024/04/10 01:30:00;;;;;;;10.80;2.37;;;10.00;96.40;;;;;;5380315;26;20008;-84
2024/04/10 01:32:26;;;;;;;11.37;2.30;;;10.00;96.70;;;;;;5382947;26;20001;-85
2024/04/10 01:34:51;;;;;;;12.50;2.67;;;10.00;97.20;;;;;;5381143;26;20328;-84
2024/04/10 01:37:17;;;;;;;8.93;2.57;;;10.00;97.80;;;;;;5381889;26;20008;-85
2024/04/10 01:39:43;;;;;;;10.60;2.40;;;10.00;98.00;;;;;;5381945;26;20000;-84
2024/04/10 01:42:08;;;;;;;7.27;2.20;;;9.90;98.20;;;;;;5350277;26;20005;-84
2024/04/10 01:44:34;;;;;;;7.37;1.80;;;9.90;98.30;;;;;;5318240;27;20006;-84
2024/04/10 01:47:00;;;;;;;8.77;2.10;;;9.90;98.30;;;;;;5345394;26;20008;-85
2024/04/10 01:49:26;;;;;;;8.93;2.60;;;9.90;98.40;;;;;;5321091;26;19998;-84
2024/04/10 01:51:52;;;;;;;12.97;2.97;;;9.90;98.80;;;;;;5345899;26;20002;-85
2024/04/10 01:54:19;;;;;;;8.07;2.30;;;9.80;98.90;;;;;;5318271;26;19997;-84
2024/04/10 01:56:44;;;;;;;9.43;2.83;;;9.80;99.00;;;;;;5319916;26;20012;-86
2024/04/10 01:59:11;;;;;;;9.43;2.77;;;9.90;99.30;;;;;;5316654;26;19997;-84
2024/04/10 02:01:37;;;;;;;11.27;2.83;;;9.80;99.50;;;;;;5320729;26;20338;-85
2024/04/10 02:04:02;;;;;;;9.83;2.40;;;9.80;99.40;;;;;;5345417;26;20461;-84
2024/04/10 02:06:28;;;;;;;11.63;2.77;;;9.80;99.50;;;;;;5347559;26;20033;-83
2024/04/10 02:08:54;;;;;;;13.23;3.33;;;9.80;99.60;;;;;;5345001;26;20012;-84
2024/04/10 02:11:22;;;;;;;12.63;2.90;;;9.80;99.90;;;;;;5320107;26;20009;-84
2024/04/10 02:13:48;;;;;;;10.07;2.40;;;9.90;99.90;;;;;;5319411;26;20030;-84
2024/04/10 02:16:14;;;;;;;8.57;2.40;;;9.80;99.90;;;;;;5348138;26;19998;-84
2024/04/10 02:18:39;;;;;;;11.93;3.20;;;9.80;99.90;;;;;;5350979;26;20009;-85
2024/04/10 02:21:05;;;;;;;11.70;2.77;;;9.80;99.90;;;;;;5348119;26;20071;-85
2024/04/10 02:23:31;;;;;;;10.27;2.73;;;9.80;99.90;;;;;;5344395;26;20078;-85
2024/04/10 02:25:56;;;;;;;10.00;2.67;;;9.80;99.90;;;;;;5356254;26;20173;-85
2024/04/10 02:28:22;;;;;;;11.63;2.30;;;9.80;99.90;;;;;;5355910;26;20001;-85
2024/04/10 02:30:48;;;;;;;10.67;2.70;;;9.80;99.90;;;;;;5355389;26;20012;-86
2024/04/10 02:33:14;;;;;;;13.07;3.83;;;9.90;99.90;;;;;;5354790;26;20033;-85
2024/04/10 02:35:39;;;;;;;10.60;2.73;;;9.90;99.90;;;;;;5355808;26;20009;-85
2024/04/10 02:38:05;;;;;;;14.43;3.27;;;9.80;99.90;;;;;;5353668;26;20355;-85
2024/04/10 02:40:32;;;;;;;13.73;3.27;;;9.90;99.90;;;;;;5356087;26;20008;-84
2024/04/10 02:43:07;;;;;;;12.37;2.97;;;9.90;99.90;;;;;;5353274;26;20005;-85
2024/04/10 02:45:33;;;;;;;16.37;3.13;;;9.90;99.90;;;;;;5355897;26;20008;-85
2024/04/10 02:48:00;;;;;;;9.93;2.47;;;9.90;99.90;;;;;;5356753;26;20003;-85
2024/04/10 02:50:25;;;;;;;9.30;2.17;;;9.90;99.90;;;;;;5353828;26;20033;-85
2024/04/10 02:52:51;;;;;;;11.60;3.03;;;9.90;99.90;;;;;;5355686;26;20439;-85
2024/04/10 02:55:17;;;;;;;11.63;2.87;;;9.90;99.90;;;;;;5353570;26;20316;-85
2024/04/10 02:57:42;;;;;;;10.40;2.33;;;9.90;99.90;;;;;;5355539;26;20323;-84
2024/04/10 03:00:10;;;;;;;15.47;2.60;;;10.00;99.90;;;;;;5353644;26;19997;-85
2024/04/10 03:02:37;;;;;;;16.13;3.30;;;9.90;99.90;;;;;;5355437;26;20415;-85
2024/04/10 03:05:06;;;;;;;10.33;2.93;;;9.90;99.90;;;;;;5354521;26;19997;-84
2024/04/10 03:07:32;;;;;;;11.37;2.93;;;9.90;99.90;;;;;;5353761;26;19993;-85
2024/04/10 03:09:57;;;;;;;12.17;3.03;;;9.90;99.90;;;;;;5357310;26;20069;-85
2024/04/10 03:12:23;;;;;;;12.90;3.10;;;10.00;99.90;;;;;;5353126;26;20433;-83
2024/04/10 03:14:49;;;;;;;9.47;2.60;;;9.90;99.90;;;;;;5355512;26;19996;-84
2024/04/10 03:17:16;;;;;;;13.07;3.53;;;9.90;99.90;;;;;;5355016;26;20409;-85
2024/04/10 03:19:42;;;;;;;11.13;2.80;;;9.90;99.90;;;;;;5326827;26;20008;-85
2024/04/10 03:22:09;;;;;;;11.13;2.20;;;9.90;99.90;;;;;;5353981;26;20005;-86
2024/04/10 03:24:34;;;;;;;12.90;3.07;;;9.90;99.90;;;;;;5354603;26;20017;-86
2024/04/10 03:27:00;;;;;;;10.33;3.03;;;9.90;99.90;;;;;;5355776;26;19997;-85
2024/04/10 03:29:26;;;;;;;10.23;2.33;;;9.90;99.90;;;;;;5355232;26;20005;-85
2024/04/10 03:31:53;;;;;;;12.47;2.67;;;9.90;99.90;;;;;;5359618;26;19996;-83
2024/04/10 03:34:19;;;;;;;16.53;3.27;;;9.90;99.90;;;;;;5355009;26;19993;-85
2024/04/10 03:36:44;;;;;;;13.70;3.10;;;9.90;99.90;;;;;;5326512;26;19997;-85
2024/04/10 03:39:11;;;;;;;13.27;2.30;;;9.90;99.90;;;;;;5354814;26;20068;-84
2024/04/10 03:41:37;;;;;;;15.37;3.10;;;9.90;99.90;;;;;;5325937;26;20015;-85
2024/04/10 03:44:05;;;;;;;20.27;2.90;;;9.90;99.90;;;;;;5355769;26;20005;-85
2024/04/10 03:46:32;;;;;;;13.47;2.27;;;9.90;99.90;;;;;;5355992;26;19996;-86
2024/04/10 03:48:58;;;;;;;8.83;2.30;;;10.00;99.90;;;;;;5356440;26;20048;-86
2024/04/10 03:51:24;;;;;;;10.57;2.70;;;10.00;99.90;;;;;;5353613;26;19997;-85
2024/04/10 03:53:49;;;;;;;13.17;3.30;;;10.00;99.90;;;;;;5354981;26;20373;-85
2024/04/10 03:56:15;;;;;;;10.53;2.30;;;10.00;99.90;;;;;;5355976;26;20036;-85
2024/04/10 03:58:41;;;;;;;11.43;2.47;;;10.00;99.90;;;;;;5354221;26;20007;-85
2024/04/10 04:01:07;;;;;;;11.30;2.70;;;10.00;99.90;;;;;;5354497;26;20004;-84
2024/04/10 04:03:35;;;;;;;13.47;2.60;;;9.90;99.90;;;;;;5352999;26;20001;-84
2024/04/10 04:06:00;;;;;;;9.87;3.00;;;10.00;99.90;;;;;;5354434;26;19997;-85
2024/04/10 04:08:27;;;;;;;13.53;3.20;;;10.00;99.90;;;;;;5353277;26;20042;-84
2024/04/10 04:10:55;;;;;;;13.03;2.40;;;10.00;99.90;;;;;;5354735;26;20332;-85
2024/04/10 04:13:21;;;;;;;12.60;2.93;;;10.00;99.90;;;;;;5352853;26;20011;-85
2024/04/10 04:15:48;;;;;;;11.67;2.97;;;10.00;99.70;;;;;;5355127;26;20013;-85
2024/04/10 04:18:14;;;;;;;12.97;3.07;;;10.00;99.70;;;;;;5354092;26;20450;-85
2024/04/10 04:20:39;;;;;;;15.03;2.80;;;10.00;99.70;;;;;;5352642;26;19997;-84
2024/04/10 04:23:05;;;;;;;12.70;2.37;;;10.00;99.80;;;;;;5348382;26;20012;-85
2024/04/10 04:25:33;;;;;;;12.20;2.70;;;10.00;99.90;;;;;;5319482;26;20007;-85
2024/04/10 04:27:59;;;;;;;13.30;2.50;;;9.90;99.90;;;;;;5348958;26;20005;-85
2024/04/10 04:30:25;;;;;;;15.23;2.70;;;9.90;99.90;;;;;;5346634;26;20001;-84
2024/04/10 04:32:50;;;;;;;9.37;2.63;;;9.90;99.90;;;;;;5321230;26;20002;-84
2024/04/10 04:35:16;;;;;;;11.30;2.47;;;9.90;99.90;;;;;;5347774;26;19998;-85
2024/04/10 04:37:53;;;;;;;14.03;2.63;;;9.90;99.90;;;;;;5346468;26;20012;-85
2024/04/10 04:40:19;;;;;;;12.33;3.00;;;9.90;99.90;;;;;;5347318;26;20002;-86
2024/04/10 04:42:45;;;;;;;20.52;2.78;;;9.80;99.90;;;;;;5319363;26;20355;-85
2024/04/10 04:45:10;;;;;;;11.50;2.63;;;9.80;99.90;;;;;;5348502;26;20077;-86
2024/04/10 04:47:36;;;;;;;12.33;2.60;;;9.80;99.90;;;;;;5346927;26;20657;-86
2024/04/10 04:50:02;;;;;;;12.73;2.30;;;9.80;99.90;;;;;;5347552;26;19997;-86
2024/04/10 04:52:28;;;;;;;12.27;2.60;;;9.70;99.90;;;;;;5347936;26;20048;-88
2024/04/10 04:54:54;;;;;;;15.60;2.37;;;9.70;99.90;;;;;;5346827;26;20002;-86
2024/04/10 04:57:20;;;;;;;13.80;2.47;;;9.70;99.90;;;;;;5348222;26;20011;-87
2024/04/10 04:59:47;;;;;;;14.17;2.50;;;9.70;99.90;;;;;;5319089;26;20033;-87
2024/04/10 05:02:12;;;;;;;10.23;1.90;;;9.70;99.90;;;;;;5348512;26;20008;-87
2024/04/10 05:07:23;;;;;;;12.63;2.75;;;9.70;99.90;;;;;;5320076;26;20004;-86
2024/04/10 05:09:52;;;;;;;11.43;2.30;;;9.70;99.90;;;;;;5348275;26;20005;-87
2024/04/10 05:12:18;;;;;;;6.07;1.80;;;9.70;99.90;;;;;;5319628;26;20005;-87
2024/04/10 05:14:53;;;;;;;15.23;2.37;;;9.70;99.90;;;;;;5348402;26;20068;-86
2024/04/10 05:17:19;;;;;;;11.03;2.00;;;9.80;99.90;;;;;;5345851;26;19992;-86
2024/04/10 05:19:45;;;;;;;9.63;2.20;;;9.80;99.90;;;;;;5320910;26;20328;-85
2024/04/10 05:22:11;;;;;;;12.93;2.87;;;9.80;99.90;;;;;;5321372;26;20004;-85
2024/04/10 05:24:36;;;;;;;11.27;1.83;;;9.80;99.90;;;;;;5323781;26;19997;-84
2024/04/10 05:27:08;;;;;;;12.97;1.87;;;9.80;99.90;;;;;;5354685;26;20011;-86
2024/04/10 05:29:33;;;;;;;14.60;2.07;;;9.80;99.90;;;;;;5366680;26;19997;-85
2024/04/10 05:31:59;;;;;;;13.47;2.17;;;9.80;99.90;;;;;;5358611;26;20041;-85
2024/04/10 05:34:25;;;;;;;9.73;2.53;;;9.80;99.90;;;;;;5387886;26;20019;-85
2024/04/10 05:36:50;;;;;;;9.40;1.70;;;9.80;99.90;;;;;;5389514;26;19997;-85
2024/04/10 05:39:21;;;;;;;9.47;2.00;;;9.90;99.90;;;;;;5357815;26;20562;-85
2024/04/10 05:41:47;;;;;;;8.73;1.90;;;9.90;99.90;;;;;;5384828;26;19996;-84
2024/04/10 05:44:13;;;;;;;14.80;2.90;;;9.90;99.90;;;;;;5354507;26;20069;-84
2024/04/10 05:46:39;;;;;;;7.80;2.37;;;9.90;99.90;;;;;;5348867;26;20003;-84
2024/04/10 05:49:09;;;;;;;15.73;2.87;;;9.90;99.90;;;;;;5359313;26;20000;-85
2024/04/10 05:51:35;;;;;;;10.73;2.50;;;9.90;99.90;;;;;;5390072;26;19988;-86
2024/04/10 05:54:01;;;;;;;11.97;2.30;;;10.00;99.90;;;;;;5364053;26;19996;-86
2024/04/10 05:56:26;;;;;;;10.00;2.10;;;10.00;99.90;;;;;;5361410;26;20003;-86
2024/04/10 05:58:52;;;;;;;15.67;2.57;;;10.00;99.90;;;;;;5361183;26;20579;-87
2024/04/10 06:01:18;;;;;;;8.80;2.40;;;10.00;99.90;;;;;;5362432;26;20015;-86
2024/04/10 06:03:47;;;;;;;13.77;2.23;;;10.00;99.90;;;;;;5360493;26;20043;-85
2024/04/10 06:06:13;;;;;;;9.73;1.70;;;10.10;99.90;;;;;;5341898;26;20012;-86
2024/04/10 06:08:44;;;;;;;12.87;2.10;;;10.10;99.90;;;;;;5352149;26;20000;-85
2024/04/10 06:11:10;;;;;;;8.67;1.70;;;10.10;99.90;;;;;;5377449;26;20007;-86
2024/04/10 06:13:36;;;;;;;15.37;1.93;;;10.10;99.80;;;;;;5369620;26;20028;-86
2024/04/10 06:16:03;;;;;;;12.00;2.40;;;10.20;99.60;;;;;;5369468;26;20001;-86
2024/04/10 06:18:29;;;;;;;13.87;2.40;;;10.20;99.40;;;;;;5374123;26;20012;-86
2024/04/10 06:21:02;;;;;;;13.43;2.60;;;10.20;99.40;;;;;;5374315;26;20005;-86
2024/04/10 06:23:30;;;;;;;11.33;2.37;;;10.30;99.40;;;;;;5357905;26;19996;-86
2024/04/10 06:25:55;;;;;;;14.10;2.85;;;10.30;99.30;;;;;;5385386;26;20006;-86
2024/04/10 06:28:21;;;;;;;12.85;2.42;;;10.40;99.40;;;;;;5418516;26;19991;-86
2024/04/10 06:30:47;;;;;;;8.35;2.03;;;10.40;99.40;;;;;;5389272;26;20034;-85
2024/04/10 06:33:16;;;;;;;12.95;2.30;;;10.50;99.40;;;;;;5385503;26;20014;-86
2024/04/10 06:35:41;;;;;;;5.72;1.52;;;10.50;99.30;;;;;;5381478;26;20047;-86
2024/04/10 06:38:07;;;;;;;12.52;2.40;;;10.50;99.30;;;;;;5344624;26;20420;-86
2024/04/10 06:40:33;;;;;;;9.48;2.15;;;10.60;99.40;;;;;;5346568;26;20011;-86
2024/04/10 06:42:58;;;;;;;10.48;2.30;;;10.60;99.00;;;;;;5356103;26;20443;-86
2024/04/10 06:45:24;;;;;;;10.20;2.10;;;10.60;98.90;;;;;;5346838;26;20009;-86
2024/04/10 06:47:50;;;;;;;11.98;2.35;;;10.60;98.90;;;;;;5363571;26;20016;-86
2024/04/10 06:50:15;;;;;;;15.65;2.40;;;10.70;98.80;;;;;;5326519;26;20007;-84
2024/04/10 06:52:41;;;;;;;12.63;2.35;;;10.70;98.80;;;;;;5326636;26;20358;-84
2024/04/10 06:55:07;;;;;;;11.52;2.63;;;10.70;98.60;;;;;;5331501;26;20004;-86
2024/04/10 06:57:33;;;;;;;8.48;2.35;;;10.80;98.70;;;;;;5389530;26;20000;-86
2024/04/10 07:00:04;;;;;;;10.93;2.13;;;10.80;98.60;;;;;;5337695;26;20356;-85
2024/04/10 07:02:30;;;;;;;10.52;2.13;;;10.80;98.60;;;;;;5356270;26;20005;-85
2024/04/10 07:04:56;;;;;;;14.57;2.78;;;10.90;98.60;;;;;;5355614;26;20374;-85
2024/04/10 07:07:21;;;;;;;9.20;2.15;;;10.90;98.50;;;;;;5354918;26;20376;-86
2024/04/10 07:09:48;;;;;;;10.80;2.60;;;11.00;98.40;;;;;;5354879;26;20476;-84
2024/04/10 07:12:15;;;;;;;15.55;2.88;;;11.00;98.10;;;;;;5353263;26;20011;-84
2024/04/10 07:14:41;;;;;;;9.98;1.80;;;11.00;97.90;;;;;;5357692;26;20011;-85
2024/04/10 07:17:06;;;;;;;12.48;2.13;;;11.10;98.00;;;;;;5352972;26;20005;-87
2024/04/10 07:19:34;;;;;;;10.85;1.67;;;11.10;98.10;;;;;;5355451;26;20001;-85
2024/04/10 07:22:06;;;;;;;7.65;1.90;;;11.10;97.80;;;;;;5355209;26;20013;-85
2024/04/10 07:24:32;;;;;;;15.02;2.60;;;11.20;97.50;;;;;;5359505;26;20503;-85
2024/04/10 07:26:57;;;;;;;14.90;2.33;;;11.20;97.30;;;;;;5360362;26;20000;-85
2024/04/10 07:29:23;;;;;;;10.98;1.90;;;11.30;97.10;;;;;;5359470;26;20023;-84
2024/04/10 07:31:49;;;;;;;15.23;2.92;;;11.20;97.00;;;;;;5360997;26;20007;-85
2024/04/10 07:34:14;;;;;;;15.57;2.45;;;11.30;96.80;;;;;;5389873;26;20007;-85
2024/04/10 07:36:43;;;;;;;7.95;1.70;;;11.20;96.40;;;;;;5391864;26;20019;-85
2024/04/10 07:39:10;;;;;;;8.07;1.90;;;11.20;96.40;;;;;;5343916;26;20008;-85
2024/04/10 07:41:37;;;;;;;11.45;2.35;;;11.10;96.30;;;;;;5384785;26;20004;-85
2024/04/10 07:44:04;;;;;;;13.98;2.90;;;11.10;96.00;;;;;;5365959;26;19997;-84
2024/04/10 07:46:30;;;;;;;12.88;2.22;;;11.10;95.90;;;;;;5344179;26;20000;-84
2024/04/10 07:48:58;;;;;;;10.20;1.88;;;11.10;95.70;;;;;;5373383;26;19996;-84
2024/04/10 07:51:24;;;;;;;12.90;2.65;;;11.10;95.50;;;;;;5372842;26;20019;-85
2024/04/10 07:53:50;;;;;;;17.80;2.22;;;11.00;95.20;;;;;;5330841;26;20428;-83
2024/04/10 07:56:17;;;;;;;16.52;2.85;;;11.00;94.90;;;;;;5354767;26;20481;-83
2024/04/10 07:58:43;;;;;;;12.30;2.30;;;11.00;94.90;;;;;;5325595;26;19997;-84
2024/04/10 08:01:09;;;;;;;14.00;2.42;;;11.00;95.00;;;;;;5325740;26;20005;-83
2024/04/10 08:03:35;;;;;;;12.68;3.13;;;11.00;94.60;;;;;;5354134;26;19997;-84
2024/04/10 08:06:04;;;;;;;13.60;1.88;;;11.00;94.40;;;;;;5325957;26;20005;-85
2024/04/10 08:08:30;;;;;;;11.73;1.80;;;11.10;94.50;;;;;;5379896;26;20072;-84
2024/04/10 08:11:00;;;;;;;13.63;2.10;;;11.10;94.60;;;;;;5369741;26;20024;-83
2024/04/10 08:13:27;;;;;;;10.07;1.63;;;11.10;94.40;;;;;;5392897;26;20016;-84
2024/04/10 08:15:58;;;;;;;12.68;2.28;;;11.10;94.10;;;;;;5358962;26;20024;-85
2024/04/10 08:18:28;;;;;;;15.43;3.47;;;11.20;94.10;;;;;;5368132;26;20011;-84
2024/04/10 08:21:08;;;;;;;11.13;1.92;;;11.30;93.70;;;;;;5338802;26;20125;-85
2024/04/10 08:23:35;;;;;;;8.85;2.13;;;11.40;94.00;;;;;;5368106;26;20012;-85
2024/04/10 08:26:13;;;;;;;12.05;1.98;;;11.50;93.60;;;;;;5388994;26;20008;-85
2024/04/10 08:28:45;;;;;;;11.80;2.40;;;11.50;93.80;;;;;;5388846;26;20007;-84
2024/04/10 08:31:15;;;;;;;13.25;2.00;;;11.60;92.90;;;;;;5384462;26;20000;-84
2024/04/10 08:33:45;;;;;;;11.68;1.70;;;11.70;92.70;;;;;;5388940;26;20000;-85
2024/04/10 08:36:12;;;;;;;12.68;1.90;;;11.70;92.60;;;;;;5359098;26;20004;-84
2024/04/10 08:38:39;;;;;;;10.18;1.30;;;11.70;92.30;;;;;;5343044;26;20000;-85
2024/04/10 08:41:13;;;;;;;13.48;2.10;;;11.80;92.60;;;;;;5382370;26;20024;-84
2024/04/10 08:43:43;;;;;;;13.20;2.15;;;11.80;92.10;;;;;;5389372;26;19992;-85
2024/04/10 08:46:09;;;;;;;8.43;1.55;;;11.90;91.60;;;;;;5389174;26;20011;-85
2024/04/10 08:48:37;;;;;;;12.40;1.50;;;12.00;91.50;;;;;;5390058;26;20011;-84
2024/04/10 08:51:07;;;;;;;8.50;1.50;;;12.00;91.60;;;;;;5388468;26;20004;-85
2024/04/10 08:53:35;;;;;;;14.35;1.70;;;12.10;91.00;;;;;;5359726;26;20003;-84
2024/04/10 08:56:01;;;;;;;7.75;1.23;;;12.10;90.80;;;;;;5387923;26;20483;-84
2024/04/10 08:58:27;;;;;;;11.90;1.55;;;12.20;90.80;;;;;;5358973;26;20471;-85
2024/04/10 09:00:53;;;;;;;8.88;1.48;;;12.30;91.00;;;;;;5389712;26;20483;-85
2024/04/10 09:03:18;;;;;;;13.88;1.67;;;12.40;90.60;;;;;;5358665;26;19999;-85
2024/04/10 09:05:44;;;;;;;11.43;1.35;;;12.50;90.50;;;;;;5341402;26;20407;-85
2024/04/10 09:08:10;;;;;;;7.43;1.65;;;12.60;90.30;;;;;;5384151;26;20072;-85
2024/04/10 09:10:36;;;;;;;9.98;1.83;;;12.70;90.10;;;;;;5359489;26;20007;-85
2024/04/10 09:13:08;;;;;;;15.48;2.17;;;12.70;87.50;;;;;;5387394;26;20000;-84
2024/04/10 09:15:34;;;;;;;8.70;1.27;;;12.70;86.50;;;;;;5389433;26;20007;-84
2024/04/10 09:18:00;;;;;;;9.23;1.50;;;12.70;86.00;;;;;;5356833;26;20004;-84
2024/04/10 09:20:26;;;;;;;9.77;1.30;;;12.60;86.60;;;;;;5389390;26;19996;-85
2024/04/10 09:23:09;;;;;;;9.63;1.35;;;12.70;86.80;;;;;;5352276;26;20012;-84
2024/04/10 09:25:35;;;;;;;12.77;2.10;;;12.80;86.40;;;;;;5340296;26;20000;-84
2024/04/10 09:28:04;;;;;;;8.23;1.45;;;12.80;86.00;;;;;;5382005;26;20029;-84
2024/04/10 09:30:38;;;;;;;11.25;1.80;;;12.90;86.50;;;;;;5345822;26;20055;-85
2024/04/10 09:33:05;;;;;;;13.32;1.67;;;13.00;85.30;;;;;;5354753;26;20017;-85
2024/04/10 09:35:33;;;;;;;11.40;2.10;;;13.10;84.90;;;;;;5378561;26;20073;-84
2024/04/10 09:38:00;;;;;;;9.52;1.27;;;13.10;84.50;;;;;;5376000;26;20051;-84
2024/04/10 09:40:28;;;;;;;12.13;2.05;;;13.20;83.40;;;;;;5366204;26;20004;-84
2024/04/10 09:43:04;;;;;;;9.25;2.53;;;13.30;83.60;;;;;;5346126;26;20009;-86
2024/04/10 09:45:35;;;;;;;8.77;1.83;;;13.40;84.40;;;;;;5339331;26;20131;-86
2024/04/10 09:48:11;;;;;;;11.02;1.48;;;13.40;82.70;;;;;;5380055;26;20014;-85
2024/04/10 09:50:38;;;;;;;10.27;1.70;;;13.50;82.20;;;;;;5376608;26;20040;-85
2024/04/10 09:53:06;;;;;;;11.60;1.77;;;13.50;82.70;;;;;;5355481;26;20008;-85
2024/04/10 09:55:38;;;;;;;7.97;1.85;;;13.60;81.20;;;;;;5331376;26;20444;-85
2024/04/10 09:58:08;;;;;;;6.72;1.52;;;13.60;80.10;;;;;;5324228;26;20041;-85
2024/04/10 10:00:37;;;;;;;8.20;1.20;;;13.50;77.50;;;;;;5322527;26;19993;-85
2024/04/10 10:03:10;;;;;;;7.38;0.93;;;13.50;77.50;;;;;;5323580;26;20001;-87
2024/04/10 10:05:37;;;;;;;6.93;1.17;;;13.40;78.40;;;;;;5323731;26;20012;-86
2024/04/10 10:08:11;;;;;;;5.30;1.40;;;13.50;79.00;;;;;;5322203;26;20725;-87
2024/04/10 10:10:49;;;;;;;6.10;0.95;;;13.70;79.20;;;;;;5327918;26;20027;-86
2024/04/10 10:13:26;;;;;;;9.93;1.30;;;14.00;79.30;;;;;;5358153;26;20014;-85
2024/04/10 10:16:04;;;;;;;7.43;0.98;;;14.30;77.40;;;;;;5397549;26;20015;-86
2024/04/10 10:18:30;;;;;;;8.90;1.23;;;14.50;76.10;;;;;;5323761;26;20005;-86
2024/04/10 10:21:10;;;;;;;7.43;1.00;;;14.60;74.50;;;;;;5362562;26;20005;-86
2024/04/10 10:23:38;;;;;;;7.13;1.10;;;14.70;73.50;;;;;;5352992;26;20004;-86
2024/04/10 10:26:05;;;;;;;8.48;1.00;;;15.00;74.40;;;;;;5349574;26;20023;-86
2024/04/10 10:28:31;;;;;;;7.85;0.93;;;15.40;73.60;;;;;;5352293;26;19996;-87
2024/04/10 10:31:08;;;;;;;3.38;0.57;;;16.00;74.50;;;;;;5388191;26;19998;-86
2024/04/10 10:33:34;;;;;;;5.18;0.95;;;16.90;73.90;;;;;;5356125;26;20051;-87
2024/04/10 10:36:00;;;;;;;5.60;0.90;;;17.80;73.60;;;;;;5358677;26;19992;-86
2024/04/10 10:38:26;;;;;;;9.25;0.90;;;18.50;72.20;;;;;;5359181;26;20072;-86
2024/04/10 10:40:51;;;;;;;3.05;0.68;;;19.00;69.30;;;;;;5360977;26;20000;-86
2024/04/10 10:43:17;;;;;;;3.75;0.60;;;19.40;69.30;;;;;;5359624;26;20000;-86
2024/04/10 10:45:50;;;;;;;3.15;0.70;;;20.10;66.30;;;;;;5360786;26;20011;-87
2024/04/10 10:48:16;;;;;;;9.43;0.77;;;20.50;64.20;;;;;;5360888;26;20156;-87
2024/04/10 10:50:42;;;;;;;3.50;0.80;;;21.10;61.50;;;;;;5389414;26;20003;-87
2024/04/10 10:53:08;;;;;;;3.72;0.77;;;21.50;59.30;;;;;;5361836;26;20011;-91
2024/04/10 10:55:34;;;;;;;3.33;0.50;;;21.70;59.60;;;;;;5355689;26;19997;-88
2024/04/10 10:58:04;;;;;;;4.13;0.75;;;21.70;58.60;;;;;;5345208;26;20377;-91
2024/04/10 11:00:31;;;;;;;4.32;0.60;;;21.70;57.90;;;;;;5359663;26;20000;-89
2024/04/10 11:03:06;;;;;;;2.80;0.47;;;21.60;57.70;;;;;;5389874;26;20009;-89
2024/04/10 11:05:32;;;;;;;2.97;0.50;;;21.40;57.10;;;;;;5388667;26;20515;-89
2024/04/10 11:07:58;;;;;;;4.55;0.90;;;21.20;56.50;;;;;;5407905;26;20011;-90
2024/04/10 11:10:25;;;;;;;5.05;1.20;;;21.00;56.40;;;;;;5369569;26;20101;-90
2024/04/10 11:13:04;;;;;;;4.32;0.70;;;20.80;56.60;;;;;;5359153;26;19988;-90
2024/04/10 11:15:38;;;;;;;5.13;0.47;;;20.70;56.00;;;;;;5357705;26;19992;-89
2024/04/10 11:18:05;;;;;;;3.92;0.70;;;20.70;56.00;;;;;;5359394;26;20039;-90
2024/04/10 11:20:32;;;;;;;4.93;0.50;;;20.70;55.10;;;;;;5360043;26;19996;-90
2024/04/10 11:23:01;;;;;;;6.82;0.73;;;20.60;55.00;;;;;;5392203;26;20012;-89
2024/04/10 11:25:29;;;;;;;3.35;0.40;;;20.60;55.00;;;;;;5359501;26;19996;-90
2024/04/10 11:27:56;;;;;;;6.18;0.77;;;20.60;54.80;;;;;;5361159;26;20036;-89
2024/04/10 11:30:22;;;;;;;3.97;0.57;;;20.50;53.70;;;;;;5362052;26;20004;-90
2024/04/10 11:32:47;;;;;;;3.58;0.50;;;20.50;53.30;;;;;;5364112;26;20011;-89
2024/04/10 11:35:13;;;;;;;3.28;0.60;;;20.50;53.50;;;;;;5364238;26;19996;-89
2024/04/10 11:37:42;;;;;;;4.30;0.80;;;20.60;53.60;;;;;;5363096;26;20023;-90
2024/04/10 11:40:11;;;;;;;3.03;0.40;;;20.70;53.30;;;;;;5425234;26;20016;-90
2024/04/10 11:42:38;;;;;;;4.22;0.70;;;20.90;52.80;;;;;;5364029;26;20061;-89
2024/04/10 11:45:08;;;;;;;2.75;0.50;;;20.90;52.30;;;;;;5363387;26;20015;-89
2024/04/10 11:47:38;;;;;;;4.40;0.88;;;21.00;52.20;;;;;;5359495;26;20019;-89
2024/04/10 11:50:04;;;;;;;4.68;0.50;;;21.10;52.30;;;;;;5360865;26;20007;-90
2024/04/10 11:52:34;;;;;;;4.32;0.50;;;21.10;51.40;;;;;;5360934;26;20003;-90
2024/04/10 11:55:00;;;;;;;2.17;0.32;;;21.30;51.60;;;;;;5359968;26;20007;-89
2024/04/10 11:57:25;;;;;;;1.90;0.40;;;21.50;51.20;;;;;;5360774;26;20004;-88
2024/04/10 11:59:51;;;;;;;2.97;0.50;;;21.60;50.60;;;;;;5359174;26;20000;-89
2024/04/10 12:02:17;;;;;;;3.97;0.57;;;21.70;50.50;;;;;;5361221;26;19992;-89
2024/04/10 12:04:43;;;;;;;2.70;0.50;;;21.80;50.30;;;;;;5359445;26;20479;-90
2024/04/10 12:07:09;;;;;;;3.75;0.40;;;21.90;50.00;;;;;;5391830;26;20000;-90
2024/04/10 12:09:39;;;;;;;3.65;0.60;;;22.00;49.40;;;;;;5361908;26;20000;-89
2024/04/10 12:12:06;;;;;;;2.90;0.40;;;22.10;49.50;;;;;;5360517;26;20036;-90
2024/04/10 12:14:31;;;;;;;3.03;0.50;;;22.20;49.80;;;;;;5359725;26;19996;-87
2024/04/10 12:16:58;;;;;;;2.53;0.32;;;22.20;49.20;;;;;;5394197;26;20007;-90
2024/04/10 12:19:24;;;;;;;5.18;0.65;;;22.30;49.00;;;;;;5357265;26;20015;-89
2024/04/10 12:21:50;;;;;;;4.10;0.60;;;22.30;48.70;;;;;;5361638;26;20014;-88
2024/04/10 12:24:15;;;;;;;3.08;0.30;;;22.40;48.10;;;;;;5357024;26;20009;-89
2024/04/10 12:26:41;;;;;;;2.05;0.30;;;22.50;47.80;;;;;;5355077;26;20032;-89
2024/04/10 12:29:07;;;;;;;2.17;0.40;;;22.60;47.30;;;;;;5361809;26;20001;-89
2024/04/10 12:31:32;;;;;;;2.85;0.30;;;22.70;47.50;;;;;;5369789;26;20074;-89
2024/04/10 12:33:58;;;;;;;2.22;0.43;;;22.80;47.20;;;;;;5362292;26;20013;-89
2024/04/10 12:39:12;;;;;;;3.00;0.40;;;23.00;47.20;;;;;;5320412;26;20009;-89
2024/04/10 12:41:40;;;;;;;2.65;0.40;;;23.00;47.00;;;;;;5355706;26;20004;-89
2024/04/10 12:44:16;;;;;;;3.63;0.50;;;23.10;46.90;;;;;;5357513;26;20004;-89
2024/04/10 12:46:42;;;;;;;2.08;0.30;;;23.30;47.20;;;;;;5354229;26;20004;-90
2024/04/10 12:49:07;;;;;;;3.03;0.40;;;23.40;46.60;;;;;;5354432;26;20004;-90